Time;durP1;ratioP1;P1;durP2;ratioP2;P2;SDS_P1;SDS_P2;PMS_P1;PMS_P2;Temp;Humidity;BMP_temperature;BMP_pressure;BME280_temperature;BME280_humidity;BME280_pressure;Samples;Min_cycle;Max_cycle;Signal;HPM_P1;HPM_P2
2021/01/17 00:00:34;;;;;;;0.53;0.53;;;;;;;0.07;74.60;101395.00;5076081;28;20202;-75
2021/01/17 00:03:01;;;;;;;0.40;0.40;;;;;;;-0.02;74.81;101393.63;5075710;28;20803;-76
2021/01/17 00:05:30;;;;;;;0.97;0.87;;;;;;;-0.11;75.12;101394.88;5075648;28;20540;-76
2021/01/17 00:07:57;;;;;;;0.40;0.30;;;;;;;-0.11;75.05;101392.22;5075359;28;20473;-76
2021/01/17 00:10:26;;;;;;;0.40;0.40;;;;;;;-0.06;75.42;101393.22;5075656;28;20492;-75
2021/01/17 00:12:53;;;;;;;0.40;0.30;;;;;;;-0.03;75.42;101399.97;5075755;28;20449;-75
2021/01/17 00:15:20;;;;;;;0.40;0.30;;;;;;;0.00;75.46;101388.91;5075686;28;20445;-75
2021/01/17 00:17:47;;;;;;;0.40;0.30;;;;;;;-0.05;75.41;101389.50;5075175;28;20857;-76
2021/01/17 00:20:14;;;;;;;0.40;0.30;;;;;;;-0.03;75.47;101389.31;5075565;28;20437;-76
2021/01/17 00:22:41;;;;;;;1.25;0.50;;;;;;;-0.03;75.55;101384.00;5075591;28;20445;-76
2021/01/17 00:25:10;;;;;;;0.40;0.30;;;;;;;-0.05;75.21;101375.38;5075534;28;20294;-76
2021/01/17 00:27:37;;;;;;;0.40;0.30;;;;;;;-0.03;75.04;101379.47;5075393;28;20508;-75
2021/01/17 00:30:06;;;;;;;0.50;0.50;;;;;;;-0.08;74.95;101386.47;5075435;28;20493;-76
2021/01/17 00:32:32;;;;;;;0.47;0.40;;;;;;;-0.07;76.10;101377.47;5075045;28;20453;-75
2021/01/17 00:34:58;;;;;;;1.98;0.50;;;;;;;-0.08;76.20;101386.47;5075069;28;20483;-76
2021/01/17 00:37:25;;;;;;;0.40;0.40;;;;;;;-0.13;75.88;101373.81;5074865;28;20231;-76
2021/01/17 00:39:51;;;;;;;0.40;0.40;;;;;;;-0.19;76.29;101371.16;5075289;28;20460;-76
2021/01/17 00:42:17;;;;;;;0.50;0.50;;;;;;;-0.30;76.64;101370.78;5075248;28;20445;-75
2021/01/17 00:44:44;;;;;;;0.40;0.30;;;;;;;-0.40;76.88;101366.91;5075141;28;20449;-76
2021/01/17 00:47:11;;;;;;;0.40;0.30;;;;;;;-0.43;77.34;101367.34;5075008;28;20230;-76
2021/01/17 00:49:38;;;;;;;0.40;0.30;;;;;;;-0.46;78.06;101370.41;5075058;28;20437;-76
2021/01/17 00:52:04;;;;;;;0.40;0.30;;;;;;;-0.49;77.62;101353.00;5074611;28;20207;-76
2021/01/17 00:54:30;;;;;;;0.40;0.30;;;;;;;-0.57;78.71;101350.59;5074628;28;20215;-75
2021/01/17 00:57:03;;;;;;;3.35;0.70;;;;;;;-0.54;78.55;101347.50;5074543;28;20476;-75
2021/01/17 00:59:29;;;;;;;0.40;0.30;;;;;;;-0.67;78.12;101348.34;5074935;28;20553;-76
2021/01/17 01:01:56;;;;;;;0.75;0.75;;;;;;;-0.75;78.34;101329.97;5074714;28;20261;-79
2021/01/17 01:04:22;;;;;;;0.75;0.57;;;;;;;-0.74;78.40;101336.91;5074216;28;20203;-75
2021/01/17 01:06:50;;;;;;;0.80;0.73;;;;;;;-0.77;78.34;101334.66;5074282;28;20222;-76
2021/01/17 01:09:17;;;;;;;0.40;0.30;;;;;;;-0.81;77.79;101334.25;5074554;28;20206;-76
2021/01/17 01:11:43;;;;;;;0.55;0.47;;;;;;;-0.89;78.79;101323.81;5073869;28;20615;-76
2021/01/17 01:14:10;;;;;;;0.40;0.40;;;;;;;-0.96;79.06;101325.69;5074334;28;20249;-75
2021/01/17 01:16:36;;;;;;;0.98;0.98;;;;;;;-1.00;77.97;101329.78;5073866;28;20575;-76
2021/01/17 01:19:04;;;;;;;0.40;0.30;;;;;;;-1.07;79.08;101321.00;5074223;28;20203;-76
2021/01/17 01:21:31;;;;;;;0.40;0.30;;;;;;;-1.07;79.57;101321.81;5074419;28;20207;-75
2021/01/17 01:23:58;;;;;;;0.40;0.35;;;;;;;-1.12;79.82;101318.13;5074298;28;20203;-77
2021/01/17 01:26:25;;;;;;;0.40;0.40;;;;;;;-1.17;80.03;101324.06;5074263;28;20219;-75
2021/01/17 01:28:54;;;;;;;0.40;0.30;;;;;;;-1.32;80.06;101321.63;5073624;28;20252;-76
2021/01/17 01:31:21;;;;;;;0.52;0.30;;;;;;;-1.35;80.21;101321.22;5073943;28;20234;-75
2021/01/17 01:33:48;;;;;;;0.40;0.30;;;;;;;-1.29;79.02;101320.38;5073919;28;20206;-76
2021/01/17 01:36:19;;;;;;;0.40;0.30;;;;;;;-1.18;79.21;101316.31;5073763;28;20234;-76
2021/01/17 01:38:46;;;;;;;0.40;0.32;;;;;;;-1.23;79.73;101314.25;5074031;28;20203;-76
2021/01/17 01:41:13;;;;;;;0.40;0.30;;;;;;;-1.41;80.39;101316.72;5073656;28;20208;-75
2021/01/17 01:43:40;;;;;;;0.40;0.30;;;;;;;-1.56;81.49;101306.25;5073875;28;20600;-75
2021/01/17 01:46:07;;;;;;;0.50;0.40;;;;;;;-1.56;81.74;101298.28;5073937;28;20222;-75
2021/01/17 01:48:35;;;;;;;0.40;0.30;;;;;;;-1.46;81.78;101303.19;5073789;28;20195;-75
2021/01/17 01:51:02;;;;;;;0.40;0.40;;;;;;;-1.46;81.85;101296.06;5073707;28;20223;-76
2021/01/17 01:53:30;;;;;;;0.40;0.30;;;;;;;-1.52;81.76;101294.22;5073617;28;20291;-75
2021/01/17 01:55:56;;;;;;;0.40;0.30;;;;;;;-1.67;83.11;101293.59;5073360;28;20203;-74
2021/01/17 01:58:23;;;;;;;8.32;1.48;;;;;;;-1.67;83.55;101288.28;5073506;28;20619;-75
2021/01/17 02:00:50;;;;;;;0.70;0.70;;;;;;;-1.74;84.34;101290.09;5073810;28;20365;-75
2021/01/17 02:03:16;;;;;;;4.03;1.48;;;;;;;-1.68;84.31;101283.97;5073670;28;20199;-75
2021/01/17 02:05:42;;;;;;;0.40;0.30;;;;;;;-1.65;83.30;101283.59;5073543;28;20206;-76
2021/01/17 02:08:43;;;;;;;0.60;0.50;;;;;;;-1.80;84.57;101281.94;5073497;28;20207;-75
2021/01/17 02:11:21;;;;;;;0.40;0.30;;;;;;;-1.80;84.61;101275.81;5073724;28;20357;-75
2021/01/17 02:13:54;;;;;;;0.70;0.57;;;;;;;-1.72;84.83;101288.91;5073378;28;20237;-75
2021/01/17 02:16:22;;;;;;;2.35;1.58;;;;;;;-1.74;85.17;101285.63;5073471;28;20250;-75
2021/01/17 02:18:53;;;;;;;0.50;0.50;;;;;;;-1.76;84.16;101284.19;5073643;28;20206;-75
2021/01/17 02:21:19;;;;;;;0.40;0.30;;;;;;;-1.93;84.83;101281.09;5073867;28;20211;-75
2021/01/17 02:23:52;;;;;;;0.40;0.30;;;;;;;-1.89;85.00;101283.16;5073335;28;20226;-75
2021/01/17 02:26:20;;;;;;;0.40;0.30;;;;;;;-1.86;84.63;101281.91;5073464;28;20223;-75
2021/01/17 02:28:47;;;;;;;1.20;0.60;;;;;;;-2.04;83.45;101285.13;5073704;28;20243;-76
2021/01/17 02:31:15;;;;;;;2.15;1.95;;;;;;;-2.25;83.96;101283.47;5073436;28;20353;-75
2021/01/17 02:33:43;;;;;;;3.22;0.77;;;;;;;-2.32;84.62;101283.44;5073153;28;20664;-75
2021/01/17 02:36:27;;;;;;;0.50;0.45;;;;;;;-2.48;85.22;101278.47;5073467;28;20708;-75
2021/01/17 02:39:03;;;;;;;0.40;0.40;;;;;;;-2.37;84.74;101279.75;5073325;28;20183;-75
2021/01/17 02:41:37;;;;;;;1.13;0.98;;;;;;;-2.43;84.55;101280.53;5074511;28;20190;-75
2021/01/17 02:44:07;;;;;;;0.40;0.40;;;;;;;-2.60;85.22;101280.06;5077089;28;20186;-76
2021/01/17 02:46:34;;;;;;;0.40;0.30;;;;;;;-2.57;85.38;101277.84;5077152;28;20294;-75
2021/01/17 02:49:00;;;;;;;0.60;0.52;;;;;;;-2.58;85.44;101273.53;5076909;28;20207;-76
2021/01/17 02:51:27;;;;;;;0.40;0.30;;;;;;;-2.57;86.01;101269.03;5077223;28;20219;-76
2021/01/17 02:54:02;;;;;;;0.80;0.60;;;;;;;-2.65;85.99;101274.53;5076869;28;20218;-75
2021/01/17 02:56:32;;;;;;;0.40;0.30;;;;;;;-2.60;85.13;101282.72;5076724;28;20464;-75
2021/01/17 02:59:00;;;;;;;0.40;0.30;;;;;;;-2.67;85.34;101271.25;5076773;28;20268;-77
2021/01/17 03:01:30;;;;;;;0.40;0.30;;;;;;;-2.64;86.11;101273.50;5076957;28;20203;-76
2021/01/17 03:04:02;;;;;;;6.57;2.25;;;;;;;-2.50;85.15;101280.50;5077850;28;20206;-76
2021/01/17 03:06:29;;;;;;;0.40;0.30;;;;;;;-2.57;85.90;101275.19;5077550;28;20227;-76
2021/01/17 03:08:56;;;;;;;0.40;0.30;;;;;;;-2.45;86.05;101279.91;5077626;28;20623;-76
2021/01/17 03:11:22;;;;;;;0.50;0.40;;;;;;;-2.69;86.34;101281.25;5076895;28;20700;-77
2021/01/17 03:13:50;;;;;;;0.40;0.30;;;;;;;-2.65;86.57;101290.44;5077261;28;20578;-78
2021/01/17 03:16:16;;;;;;;1.20;1.15;;;;;;;-2.52;86.13;101287.84;5077242;28;20257;-76
2021/01/17 03:18:43;;;;;;;0.40;0.30;;;;;;;-2.39;84.83;101292.38;5077114;28;20218;-77
2021/01/17 03:21:09;;;;;;;0.70;0.70;;;;;;;-2.35;84.48;101299.72;5077247;28;20203;-76
2021/01/17 03:23:35;;;;;;;12.88;2.05;;;;;;;-2.37;84.55;101296.47;5077508;28;20200;-76
2021/01/17 03:26:01;;;;;;;0.40;0.30;;;;;;;-2.41;85.01;101297.88;5077415;28;20203;-76
2021/01/17 03:28:28;;;;;;;3.42;1.27;;;;;;;-2.46;85.94;101292.34;5077235;28;20200;-76
2021/01/17 03:30:55;;;;;;;0.50;0.50;;;;;;;-2.34;85.96;101293.44;5077044;28;20218;-76
2021/01/17 03:33:21;;;;;;;0.40;0.30;;;;;;;-2.20;85.64;101296.13;5076956;28;20229;-76
2021/01/17 03:35:47;;;;;;;0.73;0.50;;;;;;;-2.18;85.42;101291.44;5077128;28;20257;-76
2021/01/17 03:38:13;;;;;;;0.70;0.70;;;;;;;-2.05;85.18;101294.94;5077351;28;20221;-76
2021/01/17 03:40:40;;;;;;;0.40;0.30;;;;;;;-2.02;85.37;101293.75;5077148;28;20660;-76
2021/01/17 03:43:06;;;;;;;0.40;0.30;;;;;;;-2.04;86.94;101293.09;5076945;28;20441;-76
2021/01/17 03:45:32;;;;;;;0.40;0.30;;;;;;;-1.84;85.67;101290.50;5077210;28;20200;-76
2021/01/17 03:47:59;;;;;;;0.40;0.30;;;;;;;-1.79;85.65;101293.38;5077659;28;20226;-77
2021/01/17 03:50:25;;;;;;;0.50;0.30;;;;;;;-1.75;85.55;101289.28;5077461;28;20234;-76
2021/01/17 03:52:52;;;;;;;0.50;0.45;;;;;;;-1.66;85.53;101290.72;5076334;28;20214;-76
2021/01/17 03:55:18;;;;;;;0.50;0.45;;;;;;;-1.65;85.61;101291.56;5076493;28;20201;-76
2021/01/17 03:57:44;;;;;;;0.43;0.40;;;;;;;-1.56;85.41;101291.16;5076863;28;20219;-77
2021/01/17 04:00:11;;;;;;;0.40;0.30;;;;;;;-1.50;85.53;101289.53;5076323;28;20211;-76
2021/01/17 04:02:38;;;;;;;1.05;1.02;;;;;;;-1.45;85.15;101294.22;5076706;28;20237;-76
2021/01/17 04:05:06;;;;;;;0.40;0.30;;;;;;;-1.40;84.91;101291.78;5076669;28;20199;-77
2021/01/17 04:07:32;;;;;;;0.40;0.30;;;;;;;-1.37;84.92;101288.72;5076021;28;20469;-76
2021/01/17 04:09:58;;;;;;;0.40;0.30;;;;;;;-1.36;84.69;101293.81;5076671;28;20211;-77
2021/01/17 04:12:24;;;;;;;0.40;0.30;;;;;;;-1.28;84.30;101287.50;5077105;28;20207;-76
2021/01/17 04:14:51;;;;;;;0.40;0.40;;;;;;;-1.25;84.21;101280.94;5076709;28;20211;-76
2021/01/17 04:17:17;;;;;;;0.70;0.70;;;;;;;-1.20;84.13;101283.78;5076682;28;20219;-76
2021/01/17 04:19:43;;;;;;;0.40;0.30;;;;;;;-1.24;84.29;101285.22;5076411;28;20214;-77
2021/01/17 04:22:10;;;;;;;0.40;0.30;;;;;;;-1.19;83.72;101280.94;5075877;28;20207;-76
2021/01/17 04:24:36;;;;;;;0.50;0.40;;;;;;;-1.19;83.59;101290.75;5075650;28;20669;-76
2021/01/17 04:27:03;;;;;;;0.40;0.30;;;;;;;-1.27;83.91;101289.13;5075993;28;20223;-76
2021/01/17 04:29:29;;;;;;;0.40;0.30;;;;;;;-1.31;83.66;101283.41;5076100;28;20214;-76
2021/01/17 04:31:58;;;;;;;0.40;0.30;;;;;;;-1.44;84.38;101283.41;5075734;28;20608;-76
2021/01/17 04:34:24;;;;;;;0.50;0.45;;;;;;;-1.40;83.80;101275.84;5075810;28;20664;-76
2021/01/17 04:36:51;;;;;;;0.40;0.30;;;;;;;-1.34;83.19;101286.44;5075470;28;20568;-76
2021/01/17 04:39:18;;;;;;;0.73;0.50;;;;;;;-1.30;82.96;101282.38;5075767;28;20253;-76
2021/01/17 04:41:46;;;;;;;0.50;0.40;;;;;;;-1.25;83.81;101276.44;5076052;28;20202;-76
2021/01/17 04:44:13;;;;;;;0.40;0.30;;;;;;;-1.16;83.83;101285.00;5075440;28;20573;-76
2021/01/17 04:46:42;;;;;;;0.40;0.30;;;;;;;-1.19;83.54;101275.63;5075916;28;20222;-76
2021/01/17 04:49:10;;;;;;;0.40;0.35;;;;;;;-1.24;83.46;101278.06;5075446;28;20262;-76
2021/01/17 04:51:36;;;;;;;0.40;0.30;;;;;;;-1.24;84.12;101274.59;5075722;28;20230;-76
2021/01/17 04:54:05;;;;;;;0.52;0.43;;;;;;;-1.25;83.96;101268.47;5075141;28;20486;-76
2021/01/17 04:56:37;;;;;;;0.40;0.30;;;;;;;-1.30;84.15;101271.72;5075450;28;20230;-76
2021/01/17 04:59:12;;;;;;;1.23;0.63;;;;;;;-1.32;84.15;101278.28;5075527;28;20194;-76
2021/01/17 05:02:03;;;;;;;0.40;0.30;;;;;;;-1.46;84.89;101288.09;5075441;28;20571;-76
2021/01/17 05:04:49;;;;;;;0.40;0.40;;;;;;;-1.47;86.28;101297.06;5074941;28;20188;-76
2021/01/17 05:07:17;;;;;;;0.40;0.30;;;;;;;-1.37;85.80;101281.56;5075129;28;20219;-76
2021/01/17 05:09:56;;;;;;;0.50;0.47;;;;;;;-1.29;85.08;101286.66;5075635;28;20204;-76
2021/01/17 05:12:31;;;;;;;0.40;0.38;;;;;;;-1.25;85.38;101295.03;5075321;28;20229;-77
2021/01/17 05:14:59;;;;;;;0.40;0.30;;;;;;;-1.31;85.97;101304.66;5074758;28;20600;-77
2021/01/17 05:17:25;;;;;;;0.40;0.30;;;;;;;-1.28;86.20;101308.75;5074572;28;20276;-77
2021/01/17 05:19:52;;;;;;;0.50;0.40;;;;;;;-1.32;86.14;101295.06;5074581;28;20203;-77
2021/01/17 05:22:20;;;;;;;0.40;0.30;;;;;;;-1.14;85.13;101297.09;5074888;28;20716;-76
2021/01/17 05:24:52;;;;;;;0.40;0.30;;;;;;;-1.07;84.47;101297.88;5074904;28;20199;-76
2021/01/17 05:27:18;;;;;;;0.50;0.47;;;;;;;-1.08;84.90;101298.91;5074888;28;20820;-76
2021/01/17 05:29:45;;;;;;;0.40;0.38;;;;;;;-1.15;85.46;101292.81;5074484;28;21049;-76
2021/01/17 05:32:15;;;;;;;0.40;0.30;;;;;;;-1.14;85.46;101293.63;5074927;28;20219;-76
2021/01/17 05:34:41;;;;;;;0.93;0.93;;;;;;;-0.95;84.61;101299.91;5075157;28;20498;-76
2021/01/17 05:37:09;;;;;;;0.40;0.30;;;;;;;-0.87;84.23;101302.38;5074305;28;20828;-76
2021/01/17 05:40:00;;;;;;;0.55;0.55;;;;;;;-0.82;83.47;101310.53;5074766;28;20203;-76
2021/01/17 05:42:27;;;;;;;0.40;0.30;;;;;;;-1.00;82.34;101307.69;5074706;28;20188;-76
2021/01/17 05:44:57;;;;;;;0.70;0.70;;;;;;;-0.98;82.81;101300.31;5074651;28;20445;-76
2021/01/17 05:47:25;;;;;;;0.40;0.30;;;;;;;-0.99;82.55;101307.47;5074506;28;20230;-76
2021/01/17 05:49:52;;;;;;;0.40;0.40;;;;;;;-0.99;81.97;101310.16;5074051;28;20241;-76
2021/01/17 05:52:20;;;;;;;0.40;0.40;;;;;;;-0.87;82.07;101319.13;5074269;28;20222;-76
2021/01/17 05:54:50;;;;;;;0.40;0.40;;;;;;;-0.79;81.47;101313.59;5074199;28;20211;-76
2021/01/17 05:57:17;;;;;;;0.70;0.55;;;;;;;-0.77;81.50;101318.69;5073848;28;20591;-76
2021/01/17 05:59:44;;;;;;;0.40;0.30;;;;;;;-0.82;80.94;101315.84;5074330;28;20211;-76
2021/01/17 06:02:15;;;;;;;0.40;0.30;;;;;;;-0.77;81.03;101319.50;5074136;28;20502;-76
2021/01/17 06:04:43;;;;;;;0.40;0.40;;;;;;;-0.85;80.75;101316.25;5074197;28;20261;-76
2021/01/17 06:07:10;;;;;;;0.83;0.40;;;;;;;-0.95;81.19;101319.34;5074202;28;20223;-76
2021/01/17 06:09:38;;;;;;;0.40;0.30;;;;;;;-0.88;81.65;101316.69;5074419;28;20453;-77
2021/01/17 06:12:06;;;;;;;0.40;0.30;;;;;;;-0.97;81.70;101312.59;5074268;28;20852;-77
2021/01/17 06:14:33;;;;;;;0.40;0.40;;;;;;;-1.02;82.00;101313.22;5073921;28;20453;-77
2021/01/17 06:17:01;;;;;;;0.40;0.30;;;;;;;-1.06;82.15;101315.47;5073444;28;20227;-76
2021/01/17 06:19:33;;;;;;;0.40;0.30;;;;;;;-1.08;82.87;101317.50;5073872;28;20199;-76
2021/01/17 06:22:01;;;;;;;0.40;0.30;;;;;;;-1.03;83.41;101316.91;5073316;28;20866;-76
2021/01/17 06:24:36;;;;;;;0.70;0.70;;;;;;;-1.03;83.62;101322.22;5073945;28;20203;-76
2021/01/17 06:27:03;;;;;;;0.40;0.30;;;;;;;-1.04;82.78;101323.25;5073280;28;20230;-77
2021/01/17 06:29:40;;;;;;;0.50;0.50;;;;;;;-0.89;81.02;101325.66;5073768;28;20504;-76
2021/01/17 06:32:18;;;;;;;0.40;0.30;;;;;;;-0.90;80.47;101327.50;5073571;28;20548;-77
2021/01/17 06:34:46;;;;;;;0.70;0.40;;;;;;;-0.97;80.10;101323.22;5073539;28;20191;-76
2021/01/17 06:37:15;;;;;;;0.40;0.30;;;;;;;-1.10;81.17;101335.53;5073096;28;20712;-76
2021/01/17 06:39:43;;;;;;;0.40;0.30;;;;;;;-1.14;81.73;101336.94;5073798;28;20444;-76
2021/01/17 06:42:11;;;;;;;0.60;0.60;;;;;;;-0.98;80.39;101333.03;5073841;28;20573;-76
2021/01/17 06:44:37;;;;;;;0.40;0.30;;;;;;;-0.95;79.23;101332.63;5073919;28;20606;-76
2021/01/17 06:47:04;;;;;;;0.52;0.52;;;;;;;-1.09;80.51;101341.66;5073617;28;20598;-77
2021/01/17 06:49:32;;;;;;;0.40;0.30;;;;;;;-1.02;81.04;101343.28;5073727;28;20199;-76
2021/01/17 06:52:03;;;;;;;0.57;0.55;;;;;;;-1.12;82.67;101352.69;5073076;28;20226;-76
2021/01/17 06:54:34;;;;;;;0.40;0.30;;;;;;;-1.01;82.02;101357.41;5073382;28;20218;-76
2021/01/17 06:57:01;;;;;;;0.68;0.55;;;;;;;-1.12;83.35;101352.69;5073571;28;20273;-76
2021/01/17 06:59:36;;;;;;;0.40;0.30;;;;;;;-1.19;84.44;101354.53;5073243;28;20239;-76
2021/01/17 07:02:38;;;;;;;0.40;0.30;;;;;;;-1.15;84.31;101356.59;5073276;28;20195;-76
2021/01/17 07:05:49;;;;;;;0.40;0.30;;;;;;;-0.95;84.05;101353.09;5072963;28;20651;-76
2021/01/17 07:08:50;;;;;;;0.85;0.85;;;;;;;-0.99;84.43;101352.69;5073063;28;20445;-76
2021/01/17 07:11:33;;;;;;;0.40;0.30;;;;;;;-0.93;84.54;101351.88;5073221;28;20293;-76
2021/01/17 07:14:06;;;;;;;0.63;0.60;;;;;;;-1.03;84.08;101354.94;5073487;28;20275;-77
2021/01/17 07:16:34;;;;;;;0.55;0.50;;;;;;;-1.05;85.20;101364.97;5073394;28;20552;-76
2021/01/17 07:19:11;;;;;;;0.40;0.40;;;;;;;-1.00;85.03;101356.38;5073280;28;20321;-76
2021/01/17 07:21:41;;;;;;;0.50;0.40;;;;;;;-0.77;84.22;101363.91;5073291;28;20429;-76
2021/01/17 07:24:10;;;;;;;0.50;0.40;;;;;;;-0.70;83.84;101355.94;5073106;28;20441;-76
2021/01/17 07:26:52;;;;;;;0.40;0.30;;;;;;;-0.75;83.84;101361.88;5072542;28;20592;-76
2021/01/17 07:29:19;;;;;;;0.40;0.30;;;;;;;-0.57;83.06;101359.38;5076763;28;20799;-76
2021/01/17 07:31:47;;;;;;;0.60;0.60;;;;;;;-0.45;82.67;101370.19;5076289;28;20223;-76
2021/01/17 07:34:14;;;;;;;1.07;0.67;;;;;;;-0.51;82.45;101369.19;5076323;28;20286;-76
2021/01/17 07:36:48;;;;;;;0.40;0.30;;;;;;;-0.47;82.13;101366.13;5076199;28;20479;-76
2021/01/17 07:39:18;;;;;;;0.40;0.30;;;;;;;-0.42;82.13;101377.75;5076532;28;20500;-76
2021/01/17 07:41:48;;;;;;;1.57;1.47;;;;;;;-0.40;82.09;101381.06;5075898;28;20856;-77
2021/01/17 07:44:18;;;;;;;0.50;0.40;;;;;;;-0.41;81.78;101386.56;5076297;28;20545;-76
2021/01/17 07:46:44;;;;;;;0.40;0.30;;;;;;;-0.44;81.82;101376.31;5076073;28;20637;-77
2021/01/17 07:49:12;;;;;;;0.43;0.40;;;;;;;-0.51;81.19;101377.16;5076232;28;20445;-76
2021/01/17 07:51:38;;;;;;;0.40;0.30;;;;;;;-0.52;81.62;101374.72;5076096;28;20488;-76
2021/01/17 07:54:14;;;;;;;0.40;0.40;;;;;;;-0.59;81.53;101380.03;5075725;28;20549;-76
2021/01/17 07:56:43;;;;;;;1.88;0.47;;;;;;;-0.48;81.38;101380.47;5076004;28;20977;-76
2021/01/17 07:59:10;;;;;;;0.40;0.30;;;;;;;-0.47;81.87;101388.22;5076163;28;20298;-76
2021/01/17 08:01:54;;;;;;;0.40;0.30;;;;;;;-0.45;81.33;101390.66;5076250;28;20449;-76
2021/01/17 08:04:28;;;;;;;0.57;0.57;;;;;;;-0.40;81.23;101390.84;5075743;28;20433;-76
2021/01/17 08:06:57;;;;;;;0.40;0.30;;;;;;;-0.43;81.12;101386.78;5075632;28;20276;-76
2021/01/17 08:09:46;;;;;;;0.40;0.30;;;;;;;-0.41;81.03;101390.03;5076083;28;20203;-76
2021/01/17 08:12:35;;;;;;;4.53;1.30;;;;;;;-0.39;80.85;101395.16;5075758;28;20230;-76
2021/01/17 08:15:22;;;;;;;0.40;0.30;;;;;;;-0.34;81.49;101398.03;5075784;28;20479;-76
2021/01/17 08:17:48;;;;;;;0.97;0.60;;;;;;;-0.40;81.29;101393.50;5075318;28;20306;-76
2021/01/17 08:20:27;;;;;;;0.40;0.30;;;;;;;-0.42;81.83;101385.75;5075645;28;20442;-76
2021/01/17 08:23:02;;;;;;;0.52;0.50;;;;;;;-0.39;81.77;101389.84;5075815;28;20465;-76
2021/01/17 08:25:54;;;;;;;0.40;0.30;;;;;;;-0.28;81.73;101395.31;5075388;28;20183;-76
2021/01/17 08:29:00;;;;;;;0.40;0.33;;;;;;;-0.18;81.72;101394.88;5055444;28;20439;-76
2021/01/17 08:31:43;;;;;;;2.08;1.58;;;;;;;-0.19;81.80;101397.75;5055055;28;20512;-75
2021/01/17 08:34:15;;;;;;;0.40;0.30;;;;;;;-0.23;81.46;101393.88;5055044;28;20180;-76
2021/01/17 08:36:43;;;;;;;1.40;0.77;;;;;;;-0.26;82.07;101395.13;5054823;28;21014;-76
2021/01/17 08:39:10;;;;;;;4.17;0.60;;;;;;;-0.17;82.23;101401.88;5053960;28;20449;-76
2021/01/17 08:41:39;;;;;;;0.77;0.40;;;;;;;-0.11;82.20;101409.00;5055377;28;20469;-77
2021/01/17 08:44:13;;;;;;;0.40;0.30;;;;;;;-0.08;82.59;101405.13;5055456;28;20516;-77
2021/01/17 08:46:41;;;;;;;0.40;0.30;;;;;;;-0.09;83.07;101409.63;5055465;28;20227;-77
2021/01/17 08:49:08;;;;;;;0.40;0.40;;;;;;;-0.11;83.00;101409.00;5055176;28;20719;-77
2021/01/17 08:51:35;;;;;;;1.27;0.73;;;;;;;-0.02;82.14;101402.41;5055222;28;20500;-77
2021/01/17 08:54:20;;;;;;;0.70;0.70;;;;;;;-0.01;81.94;101408.56;5055712;28;20466;-77
2021/01/17 08:56:46;;;;;;;1.95;1.85;;;;;;;-0.02;81.66;101409.59;5055225;28;20469;-77
2021/01/17 08:59:32;;;;;;;1.30;0.77;;;;;;;0.05;81.58;101410.41;5055500;28;20338;-77
2021/01/17 09:02:00;;;;;;;0.40;0.30;;;;;;;0.18;81.35;101406.88;5055318;28;20422;-77
2021/01/17 09:04:27;;;;;;;0.40;0.30;;;;;;;0.13;81.85;101410.13;5113160;23;21085;-68
2021/01/17 09:06:54;;;;;;;0.80;0.60;;;;;;;0.17;81.66;101411.34;5094063;28;20244;-68
2021/01/17 09:09:20;;;;;;;0.40;0.30;;;;;;;0.29;80.88;101414.19;5094331;28;20498;-67
2021/01/17 09:11:47;;;;;;;0.40;0.30;;;;;;;0.20;80.97;101413.59;5094227;28;20516;-69
2021/01/17 09:14:20;;;;;;;0.80;0.60;;;;;;;0.22;81.32;101422.22;5093937;28;20453;-69
2021/01/17 09:16:49;;;;;;;0.40;0.40;;;;;;;0.29;81.12;101424.00;5093984;28;20476;-69
2021/01/17 09:19:16;;;;;;;0.40;0.30;;;;;;;0.42;80.33;101419.44;5094244;28;20444;-68
2021/01/17 09:21:42;;;;;;;0.40;0.30;;;;;;;0.55;80.23;101421.22;5094187;28;20464;-68
2021/01/17 09:24:12;;;;;;;1.00;0.53;;;;;;;0.53;79.84;101433.09;5094159;28;20483;-69
2021/01/17 09:26:44;;;;;;;0.40;0.30;;;;;;;0.52;79.97;101434.97;5093828;28;20429;-69
2021/01/17 09:29:20;;;;;;;0.70;0.60;;;;;;;0.48;80.26;101434.56;5093775;28;20409;-68
2021/01/17 09:31:50;;;;;;;0.40;0.30;;;;;;;0.61;79.64;101432.88;5093962;28;20964;-69
2021/01/17 09:34:28;;;;;;;0.40;0.30;;;;;;;0.73;78.72;101442.63;5093895;28;20455;-68
2021/01/17 09:36:55;;;;;;;0.60;0.60;;;;;;;0.79;78.11;101445.47;5093883;28;20428;-69
2021/01/17 09:39:26;;;;;;;1.13;1.13;;;;;;;0.89;78.21;101440.50;5093591;28;20845;-70
2021/01/17 09:41:53;;;;;;;4.30;1.10;;;;;;;0.92;78.17;101448.06;5093750;28;20497;-69
2021/01/17 09:44:20;;;;;;;0.40;0.30;;;;;;;0.91;75.45;101443.75;5093392;28;20989;-69
2021/01/17 09:46:47;;;;;;;0.40;0.30;;;;;;;0.88;74.45;101444.19;5093334;28;20448;-69
2021/01/17 09:49:13;;;;;;;0.50;0.47;;;;;;;0.74;75.93;101452.25;5093419;28;20957;-69
2021/01/17 09:51:45;;;;;;;0.40;0.37;;;;;;;0.84;75.86;101459.81;5093221;28;20476;-68
2021/01/17 09:54:12;;;;;;;0.40;0.30;;;;;;;0.93;74.96;101452.34;5093521;28;20549;-69
2021/01/17 09:56:40;;;;;;;2.37;2.27;;;;;;;0.98;73.30;101460.53;5093347;28;20965;-69
2021/01/17 09:59:11;;;;;;;0.40;0.30;;;;;;;0.99;74.03;101464.84;5093258;28;20441;-69
2021/01/17 10:01:40;;;;;;;0.40;0.30;;;;;;;0.99;73.63;101467.50;5093264;28;20460;-69
2021/01/17 10:04:06;;;;;;;0.40;0.30;;;;;;;1.00;73.70;101474.47;5093135;28;20883;-69
2021/01/17 10:06:34;;;;;;;0.43;0.37;;;;;;;0.94;73.32;101473.50;5093467;28;20479;-68
2021/01/17 10:09:00;;;;;;;0.50;0.40;;;;;;;0.96;73.86;101475.94;5093184;28;20481;-69
2021/01/17 10:11:26;;;;;;;0.40;0.30;;;;;;;1.04;74.31;101472.19;5093392;28;21071;-70
2021/01/17 10:13:52;;;;;;;1.27;0.73;;;;;;;1.07;75.32;101469.91;5093278;28;20492;-69
2021/01/17 10:16:22;;;;;;;0.50;0.50;;;;;;;1.08;75.49;101476.88;5093759;28;20440;-70
2021/01/17 10:18:50;;;;;;;0.40;0.30;;;;;;;1.16;75.26;101481.97;5093529;28;20446;-70
2021/01/17 10:21:18;;;;;;;1.33;1.23;;;;;;;1.15;75.29;101482.16;5093086;28;20437;-69
2021/01/17 10:23:44;;;;;;;2.83;0.67;;;;;;;1.21;75.23;101484.78;5093337;28;20464;-69
2021/01/17 10:26:12;;;;;;;0.80;0.80;;;;;;;1.31;73.72;101483.50;5093422;28;20493;-70
2021/01/17 10:28:38;;;;;;;0.40;0.30;;;;;;;1.32;73.01;101477.13;5093457;28;20452;-70
2021/01/17 10:31:05;;;;;;;0.83;0.70;;;;;;;1.36;73.39;101483.66;5092993;28;21066;-69
2021/01/17 10:33:32;;;;;;;0.40;0.30;;;;;;;1.36;73.42;101483.66;5093260;28;20490;-69
2021/01/17 10:35:59;;;;;;;0.40;0.30;;;;;;;1.42;73.21;101482.81;5093358;28;20954;-69
2021/01/17 10:38:25;;;;;;;1.23;0.80;;;;;;;1.38;73.47;101487.75;5092959;28;20976;-69
2021/01/17 10:40:51;;;;;;;0.40;0.30;;;;;;;1.43;74.03;101489.75;5093431;28;20440;-69
2021/01/17 10:43:29;;;;;;;0.70;0.57;;;;;;;1.45;74.28;101493.03;5092915;28;20462;-69
2021/01/17 10:46:03;;;;;;;0.40;0.30;;;;;;;1.44;73.82;101491.38;5093297;28;20434;-70
2021/01/17 10:48:31;;;;;;;1.83;0.70;;;;;;;1.42;73.50;101494.28;5093043;28;20515;-69
2021/01/17 10:51:03;;;;;;;0.40;0.30;;;;;;;1.40;73.70;101492.84;5092643;28;21025;-70
2021/01/17 10:53:40;;;;;;;0.40;0.30;;;;;;;1.44;72.23;101499.41;5093065;28;20464;-69
2021/01/17 10:56:10;;;;;;;0.40;0.40;;;;;;;1.43;72.42;101503.94;5093151;28;20898;-70
2021/01/17 10:58:41;;;;;;;2.20;0.67;;;;;;;1.44;72.95;101499.41;5092654;28;20463;-69
2021/01/17 11:01:08;;;;;;;1.30;1.20;;;;;;;1.47;73.03;101496.31;5092704;28;20417;-70
2021/01/17 11:03:36;;;;;;;0.50;0.50;;;;;;;1.57;72.03;101501.97;5095757;28;20504;-69
2021/01/17 11:06:11;;;;;;;0.73;0.70;;;;;;;1.64;71.58;101496.53;5096871;28;20451;-69
2021/01/17 11:08:45;;;;;;;0.40;0.30;;;;;;;1.67;72.49;101501.47;5096846;28;20446;-69
2021/01/17 11:11:13;;;;;;;0.40;0.30;;;;;;;1.72;71.39;101504.28;5096764;28;20516;-69
2021/01/17 11:13:39;;;;;;;1.53;0.50;;;;;;;1.74;70.97;101497.69;5096715;28;20826;-69
2021/01/17 11:16:06;;;;;;;0.67;0.67;;;;;;;1.71;72.13;101503.47;5096650;28;20945;-69
2021/01/17 11:18:32;;;;;;;0.40;0.30;;;;;;;1.83;72.04;101503.56;5096737;28;20532;-69
2021/01/17 11:20:59;;;;;;;0.40;0.40;;;;;;;1.81;72.55;101502.16;5096301;28;20486;-69
2021/01/17 11:23:28;;;;;;;0.40;0.40;;;;;;;1.79;72.06;101502.38;5096103;28;20452;-69
2021/01/17 11:25:59;;;;;;;0.40;0.30;;;;;;;1.88;72.07;101503.72;5096549;28;20822;-69
2021/01/17 11:28:28;;;;;;;0.40;0.30;;;;;;;1.83;71.61;101492.91;5096479;28;20440;-69
2021/01/17 11:30:54;;;;;;;0.73;0.70;;;;;;;1.86;71.00;101494.28;5096332;28;20518;-69
2021/01/17 11:33:26;;;;;;;0.40;0.33;;;;;;;1.96;70.69;101489.28;5096315;28;20464;-69
2021/01/17 11:35:58;;;;;;;0.80;0.50;;;;;;;1.96;70.76;101490.09;5096267;28;20438;-69
2021/01/17 11:38:41;;;;;;;0.40;0.40;;;;;;;2.00;70.19;101501.16;5096481;28;20453;-69